Del Norte, CO

3:01 PM MDT on April 26, 2015 (GMT -0600)
Wolf Creek Pass | | Change Station
CLOSE
Current Station
Airport
Location: Wolf Creek Pass,
Elevation: 11759 ft
Nearby Weather Stations
Active Advisory: Winter Weather Advisory

Elev 11759 ft 37.45 °N, 106.80 °W | Updated 2 days ago

Snow
Snow
43 °F
Feels Like 37 °F
N
10
Wind Variable Wind from NE
Gusts 15 mph

Today
High -- | Low -- °F
--% Chance of Precip.
Yesterday
High -- | Low -- °F
Precip. -- in
6:18 AM 7:52 PM
First Quarter, 58% visible
Pressure 30.01 in
Visibility 0.8 miles
Clouds Overcast 300 ft
Windchill 37 °F
Dew Point 27 °F
Humidity 52%
Rainfall 0.17 in
Snow Depth Not available.
UV 3 out of 12
Pollen 8.60 out of 12
Air Quality Not available.
Flu Activity Sporadic
METAR KCPW 241707Z AUTO 21012G17KT 3/4SM -SN OVC003 M05/M05 A3001 RMK AO2 P0002 LTG DSNT SE

More Conditions Fewer Conditions

Pressure 30.01 in
Visibility 0.8 miles
Clouds Overcast 300 ft
Windchill 37 °F
Dew Point 27 °F
Humidity 52%
Rainfall 0.17 in
Snow Depth Not available.
UV 3 out of 12
Pollen 8.60 out of 12
Air Quality Not available.
Flu Activity Sporadic
METAR KCPW 241707Z AUTO 21012G17KT 3/4SM -SN OVC003 M05/M05 A3001 RMK AO2 P0002 LTG DSNT SE

More Conditions Fewer Conditions

The full scope of the disaster following a powerful 7.8-magnitude earthquake in Nepal may not come into view for days, but global charities are already sending emergency aid. Click to see how you can help.

10-Day Weather Forecast

Almanac

Astronomy

Apr. 26, 2015 Rise Set
Actual Time
Civil Twilight
Nautical Twilight
Astronomical Twilight
Moon
Length of Visible Light
Length of Day
Tomorrow will be .
, % of the Moon is Illuminated

Today's Extremes

State Highs State Lows

Community

WunderPhotos

Upload Photos

1,817,123 photos uploaded!

WunderBlogs® & News

Nearby

Air Quality

  Air Quality AQ Index Pollutant
Not available.

Snow Depth

Station Depth Elevation

Earthquake Activity

City Distance Mag. Time & Date
Minimum magnitude displayed is 2.5.

Coastal Water Temperatures

Place Temperature

Stations

Nearby Weather Stations

Station Location Temp. Windchill Dew Point Humidity Wind Precip. Elev Updated Type
                   
Winter Weather Advisory
Statement as of 2:33 PM MDT on April 26, 2015

... Winter Weather Advisory remains in effect until 6 am MDT
Monday...

* location... the western Mosquito Range and eastern Chaffee
County above 9000 feet.

* Cause and timing... a strong Spring storm will affect the region
through tonight.

* Snow accumulation... 4 to 9 inches with locally higher amounts.

* Wind... northeast to east at 15 to 25 mph.

* Impact... travel will become hazardous due to snow... poor
visibilities and slushy... snow covered roads.

Precautionary/preparedness actions...

If you are planning to travel in the advisory area during the
time of the advisory... listen to the latest weather forecast and
consider traveling at another time or by another Route.